首页
METAR-TAF:

METAR-TAF

机场 :

赫本, 冰岛

纬度: 64-18N, 经度: 015-13W, 海拔: 17米

当前天气观测

该预报发布于9小时和42分钟前的17:00 UTC
风速9节,风向东转东南,在南转南东之间变化
温度 11°C
湿度 71%
气压 1009 hPa
能见度10公里或以上
少量云层高于1500英尺
散云层高于2700英尺
多云层高于3500英尺
轻雾,

METAR: BIHN 131700Z 12009KT 080V150 9999 BR FEW015 SCT027 BKN035 11/06 Q1009

时间: 02:42 (02:42 UTC)

预报

该预报发布于10小时和41分钟前的16:01 UTC
预报有效从13日的 17点(UTC)到 13日的 20点(UTC)
风速12节,风向东转东南
能见度10公里或以上
散云层高于1500英尺
多云层高于2500英尺
阴天层高于4000英尺
小毛毛雨
几率 40% :
短暂存在
从 13日的 17点(UTC)到 13日的 20点(UTC)
能見度: 4000
阴天层高于800英尺
毛毛雨, 雨, 轻雾,

TAF: BIHN 131601Z 1317/1320 11012KT 9999 -DZ SCT015 BKN025 OVC040 PROB40 TEMPO 1317/1320 4000 DZRA BR OVC008

超过4000个机场的气象观测和天气预报(METAR&TAF报告)。

可查询的气象台以黄色和红色小点在地图上表示。

将鼠标移到小点上方,可查看气象台名称。

然后点击查看天气观测和预报。

如需切换地图:点击带黑十字的绿色按钮放大地图;点击带横线的绿色按钮缩小地图;或者点击绿色箭头查看邻近地区的地图。


METAR-TAF: